sensor_id;sensor_type;location;lat;lon;timestamp;pressure;altitude;pressure_sealevel;temperature;humidity
57412;BME280;43247;52.828;-8.980;2023-12-28T00:00:52;99124.78;;;7.41;93.04
57412;BME280;43247;52.828;-8.980;2023-12-28T00:01:52;99132.09;;;7.40;93.10
57412;BME280;43247;52.828;-8.980;2023-12-28T00:02:52;99133.62;;;7.42;93.01
57412;BME280;43247;52.828;-8.980;2023-12-28T00:03:52;99135.72;;;7.42;92.96
57412;BME280;43247;52.828;-8.980;2023-12-28T00:04:53;99136.00;;;7.39;93.00
57412;BME280;43247;52.828;-8.980;2023-12-28T00:05:53;99142.42;;;7.39;92.97
57412;BME280;43247;52.828;-8.980;2023-12-28T00:06:53;99143.35;;;7.37;93.08
57412;BME280;43247;52.828;-8.980;2023-12-28T00:07:54;99150.15;;;7.36;93.15
57412;BME280;43247;52.828;-8.980;2023-12-28T00:08:54;99150.27;;;7.36;93.13
57412;BME280;43247;52.828;-8.980;2023-12-28T00:09:54;99149.63;;;7.35;93.14
57412;BME280;43247;52.828;-8.980;2023-12-28T00:10:54;99150.11;;;7.38;93.02
57412;BME280;43247;52.828;-8.980;2023-12-28T00:11:55;99165.01;;;7.36;93.08
57412;BME280;43247;52.828;-8.980;2023-12-28T00:12:55;99159.75;;;7.38;93.06
57412;BME280;43247;52.828;-8.980;2023-12-28T00:13:55;99166.83;;;7.37;93.11
57412;BME280;43247;52.828;-8.980;2023-12-28T00:14:56;99165.63;;;7.38;93.10
57412;BME280;43247;52.828;-8.980;2023-12-28T00:15:56;99172.69;;;7.38;93.05
57412;BME280;43247;52.828;-8.980;2023-12-28T00:16:56;99175.83;;;7.40;92.97
57412;BME280;43247;52.828;-8.980;2023-12-28T00:17:57;99178.35;;;7.42;92.92
57412;BME280;43247;52.828;-8.980;2023-12-28T00:18:57;99180.81;;;7.40;92.95
57412;BME280;43247;52.828;-8.980;2023-12-28T00:19:57;99179.75;;;7.41;92.98
57412;BME280;43247;52.828;-8.980;2023-12-28T00:20:57;99188.83;;;7.39;93.05
57412;BME280;43247;52.828;-8.980;2023-12-28T00:21:57;99191.17;;;7.41;93.04
57412;BME280;43247;52.828;-8.980;2023-12-28T00:22:58;99193.80;;;7.41;93.07
57412;BME280;43247;52.828;-8.980;2023-12-28T00:23:58;99194.04;;;7.41;93.10
57412;BME280;43247;52.828;-8.980;2023-12-28T00:24:58;99195.02;;;7.41;93.09
57412;BME280;43247;52.828;-8.980;2023-12-28T00:25:58;99198.60;;;7.42;93.08
57412;BME280;43247;52.828;-8.980;2023-12-28T00:26:59;99198.55;;;7.40;93.08
57412;BME280;43247;52.828;-8.980;2023-12-28T00:27:59;99197.63;;;7.41;93.06
57412;BME280;43247;52.828;-8.980;2023-12-28T00:28:59;99204.31;;;7.43;92.98
57412;BME280;43247;52.828;-8.980;2023-12-28T00:29:59;99212.42;;;7.43;93.00
57412;BME280;43247;52.828;-8.980;2023-12-28T00:31:00;99212.19;;;7.41;93.06
57412;BME280;43247;52.828;-8.980;2023-12-28T00:32:00;99215.96;;;7.42;93.01
57412;BME280;43247;52.828;-8.980;2023-12-28T00:33:00;99215.97;;;7.41;93.06
57412;BME280;43247;52.828;-8.980;2023-12-28T00:34:00;99218.07;;;7.42;93.02
57412;BME280;43247;52.828;-8.980;2023-12-28T00:35:00;99219.64;;;7.41;93.03
57412;BME280;43247;52.828;-8.980;2023-12-28T00:36:00;99230.29;;;7.45;92.86
57412;BME280;43247;52.828;-8.980;2023-12-28T00:37:01;99229.55;;;7.44;92.93
57412;BME280;43247;52.828;-8.980;2023-12-28T00:38:01;99229.95;;;7.44;92.92
57412;BME280;43247;52.828;-8.980;2023-12-28T00:39:01;99234.83;;;7.47;92.82
57412;BME280;43247;52.828;-8.980;2023-12-28T00:40:03;99241.89;;;7.45;92.89
57412;BME280;43247;52.828;-8.980;2023-12-28T00:41:03;99237.20;;;7.45;92.83
57412;BME280;43247;52.828;-8.980;2023-12-28T00:42:04;99225.67;;;7.44;92.87
57412;BME280;43247;52.828;-8.980;2023-12-28T00:43:03;99232.93;;;7.45;92.90
57412;BME280;43247;52.828;-8.980;2023-12-28T00:44:04;99237.52;;;7.44;92.96
57412;BME280;43247;52.828;-8.980;2023-12-28T00:45:05;99233.53;;;7.46;92.90
57412;BME280;43247;52.828;-8.980;2023-12-28T00:46:04;99232.24;;;7.42;92.98
57412;BME280;43247;52.828;-8.980;2023-12-28T00:47:04;99232.43;;;7.42;92.99
57412;BME280;43247;52.828;-8.980;2023-12-28T00:48:05;99241.97;;;7.42;92.94
57412;BME280;43247;52.828;-8.980;2023-12-28T00:49:05;99245.36;;;7.42;92.94
57412;BME280;43247;52.828;-8.980;2023-12-28T00:50:06;99252.04;;;7.43;92.93
57412;BME280;43247;52.828;-8.980;2023-12-28T00:51:05;99250.51;;;7.45;92.85
57412;BME280;43247;52.828;-8.980;2023-12-28T00:52:05;99259.59;;;7.44;92.86
57412;BME280;43247;52.828;-8.980;2023-12-28T00:53:05;99256.86;;;7.44;92.84
57412;BME280;43247;52.828;-8.980;2023-12-28T00:54:05;99263.22;;;7.43;92.88
57412;BME280;43247;52.828;-8.980;2023-12-28T00:55:07;99255.62;;;7.45;92.79
57412;BME280;43247;52.828;-8.980;2023-12-28T00:56:07;99274.51;;;7.46;92.76
57412;BME280;43247;52.828;-8.980;2023-12-28T00:57:07;99259.91;;;7.45;92.84
57412;BME280;43247;52.828;-8.980;2023-12-28T00:58:07;99260.99;;;7.46;92.90
57412;BME280;43247;52.828;-8.980;2023-12-28T00:59:07;99253.91;;;7.46;92.84
57412;BME280;43247;52.828;-8.980;2023-12-28T01:00:09;99252.68;;;7.42;92.91
57412;BME280;43247;52.828;-8.980;2023-12-28T01:01:08;99251.60;;;7.43;92.92
57412;BME280;43247;52.828;-8.980;2023-12-28T01:02:08;99255.46;;;7.44;92.87
57412;BME280;43247;52.828;-8.980;2023-12-28T01:03:08;99260.52;;;7.44;92.81
57412;BME280;43247;52.828;-8.980;2023-12-28T01:04:09;99269.10;;;7.44;92.79
57412;BME280;43247;52.828;-8.980;2023-12-28T01:05:09;99274.07;;;7.43;92.78
57412;BME280;43247;52.828;-8.980;2023-12-28T01:06:09;99280.81;;;7.44;92.76
57412;BME280;43247;52.828;-8.980;2023-12-28T01:07:09;99287.59;;;7.43;92.78
57412;BME280;43247;52.828;-8.980;2023-12-28T01:08:09;99291.36;;;7.44;92.74
57412;BME280;43247;52.828;-8.980;2023-12-28T01:09:09;99298.23;;;7.44;92.74
57412;BME280;43247;52.828;-8.980;2023-12-28T01:10:10;99306.73;;;7.44;92.74
57412;BME280;43247;52.828;-8.980;2023-12-28T01:11:11;99310.70;;;7.44;92.75
57412;BME280;43247;52.828;-8.980;2023-12-28T01:12:10;99312.74;;;7.44;92.73
57412;BME280;43247;52.828;-8.980;2023-12-28T01:13:11;99310.85;;;7.48;92.59
57412;BME280;43247;52.828;-8.980;2023-12-28T01:14:11;99303.61;;;7.46;92.64
57412;BME280;43247;52.828;-8.980;2023-12-28T01:15:11;99299.88;;;7.48;92.57
57412;BME280;43247;52.828;-8.980;2023-12-28T01:16:12;99302.97;;;7.46;92.62
57412;BME280;43247;52.828;-8.980;2023-12-28T01:17:12;99301.66;;;7.49;92.52
57412;BME280;43247;52.828;-8.980;2023-12-28T01:18:12;99301.67;;;7.45;92.66
57412;BME280;43247;52.828;-8.980;2023-12-28T01:19:12;99304.13;;;7.46;92.65
57412;BME280;43247;52.828;-8.980;2023-12-28T01:20:13;99305.72;;;7.44;92.72
57412;BME280;43247;52.828;-8.980;2023-12-28T01:21:12;99313.83;;;7.46;92.66
57412;BME280;43247;52.828;-8.980;2023-12-28T01:22:12;99307.12;;;7.44;92.71
57412;BME280;43247;52.828;-8.980;2023-12-28T01:23:13;99308.87;;;7.43;92.74
57412;BME280;43247;52.828;-8.980;2023-12-28T01:24:13;99313.16;;;7.43;92.73
57412;BME280;43247;52.828;-8.980;2023-12-28T01:25:13;99310.28;;;7.41;92.81
57412;BME280;43247;52.828;-8.980;2023-12-28T01:26:13;99308.08;;;7.42;92.79
57412;BME280;43247;52.828;-8.980;2023-12-28T01:27:13;99310.21;;;7.43;92.74
57412;BME280;43247;52.828;-8.980;2023-12-28T01:28:14;99315.47;;;7.44;92.72
57412;BME280;43247;52.828;-8.980;2023-12-28T01:29:14;99317.14;;;7.42;92.75
57412;BME280;43247;52.828;-8.980;2023-12-28T01:30:14;99311.18;;;7.43;92.70
57412;BME280;43247;52.828;-8.980;2023-12-28T01:31:15;99313.17;;;7.42;92.75
57412;BME280;43247;52.828;-8.980;2023-12-28T01:32:14;99313.62;;;7.43;92.73
57412;BME280;43247;52.828;-8.980;2023-12-28T01:33:14;99317.38;;;7.42;92.73
57412;BME280;43247;52.828;-8.980;2023-12-28T01:34:15;99314.92;;;7.43;92.73
57412;BME280;43247;52.828;-8.980;2023-12-28T01:35:15;99318.56;;;7.43;92.74
57412;BME280;43247;52.828;-8.980;2023-12-28T01:36:17;99315.90;;;7.44;92.74
57412;BME280;43247;52.828;-8.980;2023-12-28T01:37:15;99317.88;;;7.41;92.84
57412;BME280;43247;52.828;-8.980;2023-12-28T01:38:15;99321.15;;;7.41;92.84
57412;BME280;43247;52.828;-8.980;2023-12-28T01:39:15;99325.53;;;7.43;92.81
57412;BME280;43247;52.828;-8.980;2023-12-28T01:40:16;99325.22;;;7.46;92.73
57412;BME280;43247;52.828;-8.980;2023-12-28T01:41:16;99330.91;;;7.46;92.69
57412;BME280;43247;52.828;-8.980;2023-12-28T01:42:16;99327.83;;;7.45;92.73
57412;BME280;43247;52.828;-8.980;2023-12-28T01:43:16;99332.07;;;7.44;92.76
57412;BME280;43247;52.828;-8.980;2023-12-28T01:44:16;99337.29;;;7.42;92.82
57412;BME280;43247;52.828;-8.980;2023-12-28T01:45:17;99337.17;;;7.42;92.83
57412;BME280;43247;52.828;-8.980;2023-12-28T01:46:19;99340.99;;;7.45;92.74
57412;BME280;43247;52.828;-8.980;2023-12-28T01:47:17;99345.20;;;7.42;92.82
57412;BME280;43247;52.828;-8.980;2023-12-28T01:48:17;99345.56;;;7.44;92.81
57412;BME280;43247;52.828;-8.980;2023-12-28T01:49:17;99346.97;;;7.43;92.85
57412;BME280;43247;52.828;-8.980;2023-12-28T01:50:18;99351.23;;;7.44;92.81
57412;BME280;43247;52.828;-8.980;2023-12-28T01:51:19;99351.56;;;7.42;92.85
57412;BME280;43247;52.828;-8.980;2023-12-28T01:52:18;99355.19;;;7.44;92.79
57412;BME280;43247;52.828;-8.980;2023-12-28T01:53:18;99345.79;;;7.44;92.77
57412;BME280;43247;52.828;-8.980;2023-12-28T01:54:18;99341.92;;;7.43;92.84
57412;BME280;43247;52.828;-8.980;2023-12-28T01:55:19;99344.30;;;7.42;92.90
57412;BME280;43247;52.828;-8.980;2023-12-28T01:56:19;99351.16;;;7.45;92.84
57412;BME280;43247;52.828;-8.980;2023-12-28T01:57:19;99346.81;;;7.42;92.93
57412;BME280;43247;52.828;-8.980;2023-12-28T01:58:19;99340.81;;;7.42;92.99
57412;BME280;43247;52.828;-8.980;2023-12-28T01:59:19;99344.61;;;7.44;93.01
57412;BME280;43247;52.828;-8.980;2023-12-28T02:00:21;99342.19;;;7.44;93.04
57412;BME280;43247;52.828;-8.980;2023-12-28T02:01:20;99343.14;;;7.45;93.07
57412;BME280;43247;52.828;-8.980;2023-12-28T02:02:21;99350.05;;;7.46;93.07
57412;BME280;43247;52.828;-8.980;2023-12-28T02:03:20;99357.14;;;7.45;93.16
57412;BME280;43247;52.828;-8.980;2023-12-28T02:04:21;99356.76;;;7.46;93.13
57412;BME280;43247;52.828;-8.980;2023-12-28T02:05:21;99355.87;;;7.46;93.19
57412;BME280;43247;52.828;-8.980;2023-12-28T02:06:23;99356.47;;;7.45;93.28
57412;BME280;43247;52.828;-8.980;2023-12-28T02:07:21;99348.28;;;7.44;93.36
57412;BME280;43247;52.828;-8.980;2023-12-28T02:08:21;99354.11;;;7.45;93.30
57412;BME280;43247;52.828;-8.980;2023-12-28T02:09:22;99352.47;;;7.46;93.29
57412;BME280;43247;52.828;-8.980;2023-12-28T02:10:22;99353.93;;;7.46;93.29
57412;BME280;43247;52.828;-8.980;2023-12-28T02:11:22;99351.70;;;7.47;93.27
57412;BME280;43247;52.828;-8.980;2023-12-28T02:12:22;99351.21;;;7.46;93.30
57412;BME280;43247;52.828;-8.980;2023-12-28T02:13:22;99351.71;;;7.47;93.30
57412;BME280;43247;52.828;-8.980;2023-12-28T02:14:23;99352.71;;;7.47;93.30
57412;BME280;43247;52.828;-8.980;2023-12-28T02:15:23;99350.74;;;7.47;93.33
57412;BME280;43247;52.828;-8.980;2023-12-28T02:16:27;99353.45;;;7.47;93.34
57412;BME280;43247;52.828;-8.980;2023-12-28T02:17:27;99359.89;;;7.49;93.25
57412;BME280;43247;52.828;-8.980;2023-12-28T02:18:27;99361.12;;;7.48;93.22
57412;BME280;43247;52.828;-8.980;2023-12-28T02:19:32;99354.56;;;7.49;93.23
57412;BME280;43247;52.828;-8.980;2023-12-28T02:20:24;99353.92;;;7.45;93.37
57412;BME280;43247;52.828;-8.980;2023-12-28T02:21:24;99358.51;;;7.45;93.41
57412;BME280;43247;52.828;-8.980;2023-12-28T02:22:26;99364.13;;;7.44;93.44
57412;BME280;43247;52.828;-8.980;2023-12-28T02:23:25;99364.37;;;7.45;93.44
57412;BME280;43247;52.828;-8.980;2023-12-28T02:24:25;99364.67;;;7.43;93.52
57412;BME280;43247;52.828;-8.980;2023-12-28T02:25:25;99365.51;;;7.43;93.52
57412;BME280;43247;52.828;-8.980;2023-12-28T02:26:25;99374.49;;;7.42;93.55
57412;BME280;43247;52.828;-8.980;2023-12-28T02:27:26;99366.72;;;7.43;93.43
57412;BME280;43247;52.828;-8.980;2023-12-28T02:28:25;99369.29;;;7.42;93.46
57412;BME280;43247;52.828;-8.980;2023-12-28T02:29:26;99371.68;;;7.42;93.49
57412;BME280;43247;52.828;-8.980;2023-12-28T02:30:26;99384.88;;;7.42;93.46
57412;BME280;43247;52.828;-8.980;2023-12-28T02:31:28;99376.26;;;7.42;93.43
57412;BME280;43247;52.828;-8.980;2023-12-28T02:32:36;99375.27;;;7.45;93.33
57412;BME280;43247;52.828;-8.980;2023-12-28T02:33:32;99376.47;;;7.44;93.30
57412;BME280;43247;52.828;-8.980;2023-12-28T02:34:31;99375.01;;;7.44;93.29
57412;BME280;43247;52.828;-8.980;2023-12-28T02:35:31;99373.10;;;7.44;93.27
57412;BME280;43247;52.828;-8.980;2023-12-28T02:36:27;99372.70;;;7.42;93.32
57412;BME280;43247;52.828;-8.980;2023-12-28T02:37:28;99369.38;;;7.44;93.29
57412;BME280;43247;52.828;-8.980;2023-12-28T02:38:29;99370.57;;;7.41;93.35
57412;BME280;43247;52.828;-8.980;2023-12-28T02:39:29;99371.90;;;7.45;93.24
57412;BME280;43247;52.828;-8.980;2023-12-28T02:40:31;99372.05;;;7.44;93.49
57412;BME280;43247;52.828;-8.980;2023-12-28T02:41:29;99369.40;;;7.42;93.55
57412;BME280;43247;52.828;-8.980;2023-12-28T02:42:29;99368.40;;;7.41;93.45
57412;BME280;43247;52.828;-8.980;2023-12-28T02:43:29;99367.63;;;7.40;93.38
57412;BME280;43247;52.828;-8.980;2023-12-28T02:44:29;99367.47;;;7.43;93.35
57412;BME280;43247;52.828;-8.980;2023-12-28T02:45:29;99374.74;;;7.41;93.30
57412;BME280;43247;52.828;-8.980;2023-12-28T02:46:29;99368.48;;;7.44;93.16
57412;BME280;43247;52.828;-8.980;2023-12-28T02:47:29;99377.16;;;7.45;93.08
57412;BME280;43247;52.828;-8.980;2023-12-28T02:48:30;99368.18;;;7.44;93.03
57412;BME280;43247;52.828;-8.980;2023-12-28T02:49:30;99370.22;;;7.43;93.05
57412;BME280;43247;52.828;-8.980;2023-12-28T02:50:31;99366.41;;;7.44;93.06
57412;BME280;43247;52.828;-8.980;2023-12-28T02:51:31;99371.39;;;7.45;93.00
57412;BME280;43247;52.828;-8.980;2023-12-28T02:52:31;99370.21;;;7.45;92.99
57412;BME280;43247;52.828;-8.980;2023-12-28T02:53:32;99369.86;;;7.44;93.01
57412;BME280;43247;52.828;-8.980;2023-12-28T02:54:32;99374.77;;;7.45;92.93
57412;BME280;43247;52.828;-8.980;2023-12-28T02:55:32;99371.34;;;7.45;92.92
57412;BME280;43247;52.828;-8.980;2023-12-28T02:56:33;99368.78;;;7.46;92.89
57412;BME280;43247;52.828;-8.980;2023-12-28T02:57:33;99367.76;;;7.45;92.89
57412;BME280;43247;52.828;-8.980;2023-12-28T02:58:34;99364.76;;;7.45;92.85
57412;BME280;43247;52.828;-8.980;2023-12-28T02:59:34;99364.21;;;7.45;92.82
57412;BME280;43247;52.828;-8.980;2023-12-28T03:00:35;99364.59;;;7.44;92.85
57412;BME280;43247;52.828;-8.980;2023-12-28T03:01:35;99362.88;;;7.45;92.78
57412;BME280;43247;52.828;-8.980;2023-12-28T03:02:36;99361.26;;;7.46;92.76
57412;BME280;43247;52.828;-8.980;2023-12-28T03:03:35;99357.75;;;7.48;92.68
57412;BME280;43247;52.828;-8.980;2023-12-28T03:04:36;99351.73;;;7.46;92.70
57412;BME280;43247;52.828;-8.980;2023-12-28T03:05:36;99352.27;;;7.45;92.74
57412;BME280;43247;52.828;-8.980;2023-12-28T03:06:37;99350.07;;;7.43;92.81
57412;BME280;43247;52.828;-8.980;2023-12-28T03:07:37;99346.45;;;7.44;92.80
57412;BME280;43247;52.828;-8.980;2023-12-28T03:08:37;99354.65;;;7.43;92.82
57412;BME280;43247;52.828;-8.980;2023-12-28T03:09:37;99348.09;;;7.46;92.72
57412;BME280;43247;52.828;-8.980;2023-12-28T03:10:38;99351.47;;;7.46;92.70
57412;BME280;43247;52.828;-8.980;2023-12-28T03:11:38;99350.06;;;7.44;92.78
57412;BME280;43247;52.828;-8.980;2023-12-28T03:12:39;99351.67;;;7.45;92.79
57412;BME280;43247;52.828;-8.980;2023-12-28T03:13:39;99348.78;;;7.45;92.80
57412;BME280;43247;52.828;-8.980;2023-12-28T03:14:39;99347.68;;;7.43;92.89
57412;BME280;43247;52.828;-8.980;2023-12-28T03:15:39;99347.33;;;7.45;92.81
57412;BME280;43247;52.828;-8.980;2023-12-28T03:16:40;99350.45;;;7.44;92.81
57412;BME280;43247;52.828;-8.980;2023-12-28T03:17:40;99351.70;;;7.43;92.86
57412;BME280;43247;52.828;-8.980;2023-12-28T03:18:40;99353.32;;;7.45;92.76
57412;BME280;43247;52.828;-8.980;2023-12-28T03:19:40;99352.96;;;7.42;92.88
57412;BME280;43247;52.828;-8.980;2023-12-28T03:20:40;99358.79;;;7.44;92.87
57412;BME280;43247;52.828;-8.980;2023-12-28T03:21:41;99362.39;;;7.42;92.95
57412;BME280;43247;52.828;-8.980;2023-12-28T03:22:41;99360.37;;;7.44;92.90
57412;BME280;43247;52.828;-8.980;2023-12-28T03:23:41;99350.24;;;7.43;92.91
57412;BME280;43247;52.828;-8.980;2023-12-28T03:24:41;99347.14;;;7.45;92.87
57412;BME280;43247;52.828;-8.980;2023-12-28T03:25:41;99347.73;;;7.44;92.89
57412;BME280;43247;52.828;-8.980;2023-12-28T03:26:41;99354.60;;;7.43;92.95
57412;BME280;43247;52.828;-8.980;2023-12-28T03:27:42;99360.61;;;7.45;92.90
57412;BME280;43247;52.828;-8.980;2023-12-28T03:28:43;99363.83;;;7.44;92.91
57412;BME280;43247;52.828;-8.980;2023-12-28T03:29:43;99360.30;;;7.44;92.91
57412;BME280;43247;52.828;-8.980;2023-12-28T03:30:43;99360.63;;;7.44;92.95
57412;BME280;43247;52.828;-8.980;2023-12-28T03:31:43;99358.92;;;7.44;92.92
57412;BME280;43247;52.828;-8.980;2023-12-28T03:32:44;99365.73;;;7.44;92.97
57412;BME280;43247;52.828;-8.980;2023-12-28T03:33:44;99372.27;;;7.45;92.90
57412;BME280;43247;52.828;-8.980;2023-12-28T03:34:44;99373.41;;;7.44;92.96
57412;BME280;43247;52.828;-8.980;2023-12-28T03:35:44;99367.74;;;7.46;92.90
57412;BME280;43247;52.828;-8.980;2023-12-28T03:36:45;99370.96;;;7.45;92.96
57412;BME280;43247;52.828;-8.980;2023-12-28T03:37:45;99373.28;;;7.45;92.98
57412;BME280;43247;52.828;-8.980;2023-12-28T03:38:46;99376.41;;;7.45;92.95
57412;BME280;43247;52.828;-8.980;2023-12-28T03:39:46;99400.17;;;7.45;92.98
57412;BME280;43247;52.828;-8.980;2023-12-28T03:40:46;99418.35;;;7.45;92.99
57412;BME280;43247;52.828;-8.980;2023-12-28T03:41:47;99450.57;;;7.47;92.93
57412;BME280;43247;52.828;-8.980;2023-12-28T03:42:47;99452.10;;;7.45;92.95
57412;BME280;43247;52.828;-8.980;2023-12-28T03:43:48;99439.81;;;7.44;93.03
57412;BME280;43247;52.828;-8.980;2023-12-28T03:44:48;99419.81;;;7.46;92.91
57412;BME280;43247;52.828;-8.980;2023-12-28T03:45:48;99418.64;;;7.46;92.91
57412;BME280;43247;52.828;-8.980;2023-12-28T03:46:48;99408.56;;;7.42;92.98
57412;BME280;43247;52.828;-8.980;2023-12-28T03:47:48;99416.46;;;7.41;92.89
57412;BME280;43247;52.828;-8.980;2023-12-28T03:48:49;99406.18;;;7.41;92.79
57412;BME280;43247;52.828;-8.980;2023-12-28T03:49:49;99392.66;;;7.39;92.79
57412;BME280;43247;52.828;-8.980;2023-12-28T03:50:49;99411.22;;;7.40;92.75
57412;BME280;43247;52.828;-8.980;2023-12-28T03:51:50;99407.11;;;7.40;92.70
57412;BME280;43247;52.828;-8.980;2023-12-28T03:52:50;99398.04;;;7.40;92.66
57412;BME280;43247;52.828;-8.980;2023-12-28T03:53:50;99397.49;;;7.41;92.60
57412;BME280;43247;52.828;-8.980;2023-12-28T03:54:50;99396.37;;;7.41;92.62
57412;BME280;43247;52.828;-8.980;2023-12-28T03:55:50;99395.04;;;7.39;92.68
57412;BME280;43247;52.828;-8.980;2023-12-28T03:56:50;99394.11;;;7.39;92.66
57412;BME280;43247;52.828;-8.980;2023-12-28T03:57:51;99393.36;;;7.39;92.63
57412;BME280;43247;52.828;-8.980;2023-12-28T03:58:51;99390.91;;;7.38;92.63
57412;BME280;43247;52.828;-8.980;2023-12-28T03:59:51;99391.50;;;7.37;92.64
57412;BME280;43247;52.828;-8.980;2023-12-28T04:00:51;99392.54;;;7.36;92.65
57412;BME280;43247;52.828;-8.980;2023-12-28T04:01:51;99389.63;;;7.37;92.63
57412;BME280;43247;52.828;-8.980;2023-12-28T04:02:51;99388.58;;;7.36;92.62
57412;BME280;43247;52.828;-8.980;2023-12-28T04:03:51;99385.69;;;7.37;92.58
57412;BME280;43247;52.828;-8.980;2023-12-28T04:04:52;99384.97;;;7.36;92.59
57412;BME280;43247;52.828;-8.980;2023-12-28T04:05:52;99386.36;;;7.35;92.62
57412;BME280;43247;52.828;-8.980;2023-12-28T04:06:52;99385.79;;;7.33;92.62
57412;BME280;43247;52.828;-8.980;2023-12-28T04:07:52;99385.65;;;7.34;92.62
57412;BME280;43247;52.828;-8.980;2023-12-28T04:08:52;99389.44;;;7.34;92.59
57412;BME280;43247;52.828;-8.980;2023-12-28T04:09:53;99393.18;;;7.34;92.43
57412;BME280;43247;52.828;-8.980;2023-12-28T04:10:53;99388.40;;;7.34;92.58
57412;BME280;43247;52.828;-8.980;2023-12-28T04:11:53;99382.74;;;7.35;92.60
57412;BME280;43247;52.828;-8.980;2023-12-28T04:12:54;99384.88;;;7.32;92.71
57412;BME280;43247;52.828;-8.980;2023-12-28T04:13:54;99383.29;;;7.32;92.65
57412;BME280;43247;52.828;-8.980;2023-12-28T04:14:54;99382.85;;;7.31;92.74
57412;BME280;43247;52.828;-8.980;2023-12-28T04:15:54;99385.03;;;7.33;92.64
57412;BME280;43247;52.828;-8.980;2023-12-28T04:16:54;99383.19;;;7.31;92.64
57412;BME280;43247;52.828;-8.980;2023-12-28T04:17:55;99378.13;;;7.29;92.70
57412;BME280;43247;52.828;-8.980;2023-12-28T04:18:55;99375.95;;;7.30;92.62
57412;BME280;43247;52.828;-8.980;2023-12-28T04:19:55;99379.45;;;7.29;92.60
57412;BME280;43247;52.828;-8.980;2023-12-28T04:20:55;99377.78;;;7.29;92.58
57412;BME280;43247;52.828;-8.980;2023-12-28T04:21:55;99374.23;;;7.31;92.49
57412;BME280;43247;52.828;-8.980;2023-12-28T04:22:56;99366.95;;;7.30;92.46
57412;BME280;43247;52.828;-8.980;2023-12-28T04:23:56;99367.93;;;7.32;92.41
57412;BME280;43247;52.828;-8.980;2023-12-28T04:24:56;99372.43;;;7.31;92.37
57412;BME280;43247;52.828;-8.980;2023-12-28T04:25:58;99369.51;;;7.31;92.35
57412;BME280;43247;52.828;-8.980;2023-12-28T04:26:57;99370.46;;;7.30;92.38
57412;BME280;43247;52.828;-8.980;2023-12-28T04:27:57;99373.25;;;7.30;92.35
57412;BME280;43247;52.828;-8.980;2023-12-28T04:28:58;99367.77;;;7.29;92.37
57412;BME280;43247;52.828;-8.980;2023-12-28T04:29:58;99370.49;;;7.31;92.29
57412;BME280;43247;52.828;-8.980;2023-12-28T04:30:58;99360.64;;;7.31;92.27
57412;BME280;43247;52.828;-8.980;2023-12-28T04:31:59;99356.57;;;7.28;92.30
57412;BME280;43247;52.828;-8.980;2023-12-28T04:33:00;99365.72;;;7.31;92.19
57412;BME280;43247;52.828;-8.980;2023-12-28T04:34:00;99355.69;;;7.32;92.17
57412;BME280;43247;52.828;-8.980;2023-12-28T04:35:00;99357.14;;;7.30;92.18
57412;BME280;43247;52.828;-8.980;2023-12-28T04:36:01;99359.55;;;7.31;92.15
57412;BME280;43247;52.828;-8.980;2023-12-28T04:37:00;99355.89;;;7.32;92.10
57412;BME280;43247;52.828;-8.980;2023-12-28T04:38:01;99360.63;;;7.30;92.09
57412;BME280;43247;52.828;-8.980;2023-12-28T04:39:01;99351.77;;;7.28;92.24
57412;BME280;43247;52.828;-8.980;2023-12-28T04:40:01;99357.13;;;7.31;92.11
57412;BME280;43247;52.828;-8.980;2023-12-28T04:41:01;99349.18;;;7.29;92.20
57412;BME280;43247;52.828;-8.980;2023-12-28T04:42:01;99355.71;;;7.31;92.12
57412;BME280;43247;52.828;-8.980;2023-12-28T04:43:01;99351.52;;;7.31;92.07
57412;BME280;43247;52.828;-8.980;2023-12-28T04:44:02;99355.25;;;7.30;92.04
57412;BME280;43247;52.828;-8.980;2023-12-28T04:45:02;99356.02;;;7.32;92.01
57412;BME280;43247;52.828;-8.980;2023-12-28T04:46:03;99361.72;;;7.29;92.09
57412;BME280;43247;52.828;-8.980;2023-12-28T04:47:02;99353.02;;;7.26;92.20
57412;BME280;43247;52.828;-8.980;2023-12-28T04:48:03;99351.30;;;7.30;92.06
57412;BME280;43247;52.828;-8.980;2023-12-28T04:49:02;99344.49;;;7.28;92.11
57412;BME280;43247;52.828;-8.980;2023-12-28T04:50:04;99343.82;;;7.29;92.09
57412;BME280;43247;52.828;-8.980;2023-12-28T04:51:04;99341.57;;;7.28;91.97
57412;BME280;43247;52.828;-8.980;2023-12-28T04:52:05;99342.69;;;7.28;92.12
57412;BME280;43247;52.828;-8.980;2023-12-28T04:53:04;99342.91;;;7.28;92.05
57412;BME280;43247;52.828;-8.980;2023-12-28T04:54:05;99348.02;;;7.28;91.94
57412;BME280;43247;52.828;-8.980;2023-12-28T04:55:06;99345.93;;;7.30;91.89
57412;BME280;43247;52.828;-8.980;2023-12-28T04:56:06;99345.91;;;7.28;91.86
57412;BME280;43247;52.828;-8.980;2023-12-28T04:57:05;99345.98;;;7.28;91.91
57412;BME280;43247;52.828;-8.980;2023-12-28T04:58:06;99346.39;;;7.26;91.92
57412;BME280;43247;52.828;-8.980;2023-12-28T04:59:06;99349.80;;;7.25;91.97
57412;BME280;43247;52.828;-8.980;2023-12-28T05:00:07;99347.33;;;7.27;91.92
57412;BME280;43247;52.828;-8.980;2023-12-28T05:01:06;99344.70;;;7.26;91.91
57412;BME280;43247;52.828;-8.980;2023-12-28T05:02:06;99349.83;;;7.24;92.02
57412;BME280;43247;52.828;-8.980;2023-12-28T05:03:06;99344.82;;;7.26;91.87
57412;BME280;43247;52.828;-8.980;2023-12-28T05:04:06;99339.52;;;7.26;91.82
57412;BME280;43247;52.828;-8.980;2023-12-28T05:05:07;99336.72;;;7.29;91.68
57412;BME280;43247;52.828;-8.980;2023-12-28T05:06:07;99339.07;;;7.27;91.71
57412;BME280;43247;52.828;-8.980;2023-12-28T05:07:07;99334.32;;;7.27;91.72
57412;BME280;43247;52.828;-8.980;2023-12-28T05:08:07;99341.67;;;7.27;91.70
57412;BME280;43247;52.828;-8.980;2023-12-28T05:09:07;99342.78;;;7.26;91.67
57412;BME280;43247;52.828;-8.980;2023-12-28T05:10:08;99341.82;;;7.26;91.62
57412;BME280;43247;52.828;-8.980;2023-12-28T05:11:08;99344.60;;;7.25;91.65
57412;BME280;43247;52.828;-8.980;2023-12-28T05:12:08;99347.56;;;7.25;91.61
57412;BME280;43247;52.828;-8.980;2023-12-28T05:13:08;99338.65;;;7.23;91.64
57412;BME280;43247;52.828;-8.980;2023-12-28T05:14:08;99343.13;;;7.22;91.64
57412;BME280;43247;52.828;-8.980;2023-12-28T05:15:09;99341.60;;;7.23;91.58
57412;BME280;43247;52.828;-8.980;2023-12-28T05:16:09;99338.56;;;7.23;91.55
57412;BME280;43247;52.828;-8.980;2023-12-28T05:17:09;99339.50;;;7.21;91.59
57412;BME280;43247;52.828;-8.980;2023-12-28T05:18:09;99341.87;;;7.23;91.55
57412;BME280;43247;52.828;-8.980;2023-12-28T05:19:09;99344.71;;;7.22;91.55